Atlantic, Pennsylvania
Current Conditions -  °F | °C
As of 5:53 PM on Wednesday 22 Oct 2014 (Local Time) from KGKJ Reporting Station
Overcast Overcast  
Wind Chill: 41°   Ceiling: 1400
Heat Index: 46°   Visibility: 10mi
Dew Point: 40°   Wind: 9mph
Humidity: 79%   Direction: 10°N
Pressure: 30.2"   Gusts: NA
Location:  41.5°N, 80.33°W
Report Text: KGKJ 222153Z AUTO 01008KT 10SM OVC014 08/04 A3020 RMK AO2 SLP232 T00780044 TSNO
Loading
Personal Weather Stations






























Interactive Weather Map New forecast layout! Learn more

10-Day Weather Forecast

Advertisements
Track Severe Weather on mobile